Time;durP1;ratioP1;P1;durP2;ratioP2;P2;SDS_P1;SDS_P2;PMS_P1;PMS_P2;Temp;Humidity;BMP_temperature;BMP_pressure;BME280_temperature;BME280_humidity;BME280_pressure;Samples;Min_cycle;Max_cycle;Signal;HPM_P1;HPM_P2
2021/04/05 00:00:37;;;;;;;0.62;0.62;;;5.30;99.90;;;;;;4397882;32;20086;-77
2021/04/05 00:03:03;;;;;;;0.30;0.30;;;5.40;99.90;;;;;;4398738;32;20078;-77
2021/04/05 00:05:31;;;;;;;0.88;0.88;;;5.30;99.90;;;;;;4396715;32;20074;-76
2021/04/05 00:07:57;;;;;;;1.77;1.05;;;5.40;99.90;;;;;;4397992;32;20868;-76
2021/04/05 00:10:27;;;;;;;4.12;0.60;;;5.40;99.90;;;;;;4397763;32;20062;-77
2021/04/05 00:12:55;;;;;;;0.40;0.40;;;5.30;99.90;;;;;;4399001;32;20585;-76
2021/04/05 00:15:21;;;;;;;0.52;0.50;;;5.20;99.90;;;;;;4397886;32;20147;-77
2021/04/05 00:17:47;;;;;;;0.50;0.50;;;5.20;99.90;;;;;;4397412;32;20125;-77
2021/04/05 00:20:15;;;;;;;0.50;0.50;;;5.20;99.90;;;;;;4398208;32;20071;-77
2021/04/05 00:22:43;;;;;;;1.33;0.95;;;5.10;99.90;;;;;;4397635;32;20483;-77
2021/04/05 00:25:09;;;;;;;0.60;0.60;;;5.20;99.90;;;;;;4397365;32;20082;-77
2021/04/05 00:27:36;;;;;;;0.32;0.32;;;5.20;99.90;;;;;;4397523;32;20082;-77
2021/04/05 00:30:07;;;;;;;0.90;0.50;;;5.30;99.90;;;;;;4408383;32;20070;-77
2021/04/05 00:32:32;;;;;;;0.30;0.30;;;5.20;99.90;;;;;;4412625;32;20066;-77
2021/04/05 00:34:58;;;;;;;0.62;0.57;;;5.10;99.90;;;;;;4412955;32;20094;-77
2021/04/05 00:37:23;;;;;;;0.50;0.50;;;5.10;99.90;;;;;;4413341;32;20069;-76
2021/04/05 00:39:49;;;;;;;0.40;0.40;;;5.10;99.90;;;;;;4414399;32;20073;-77
2021/04/05 00:42:16;;;;;;;0.95;0.62;;;5.20;99.90;;;;;;4417362;32;20065;-76
2021/04/05 00:44:43;;;;;;;0.40;0.40;;;5.20;99.90;;;;;;4416023;32;20065;-77
2021/04/05 00:47:08;;;;;;;0.50;0.50;;;5.20;99.90;;;;;;4415172;32;20112;-76
2021/04/05 00:49:34;;;;;;;0.60;0.60;;;5.10;99.90;;;;;;4415087;32;20077;-77
2021/04/05 00:52:01;;;;;;;2.60;1.10;;;5.10;99.90;;;;;;4415102;32;20430;-76
2021/04/05 00:54:26;;;;;;;0.50;0.50;;;5.10;99.90;;;;;;4414680;32;20069;-77
2021/04/05 00:56:52;;;;;;;1.42;0.75;;;5.20;99.90;;;;;;4415766;32;20069;-77
2021/04/05 00:59:19;;;;;;;2.17;1.95;;;5.20;99.90;;;;;;4415723;32;20475;-77
2021/04/05 01:01:44;;;;;;;0.57;0.57;;;5.40;99.90;;;;;;4415159;32;20113;-77
2021/04/05 01:04:10;;;;;;;0.50;0.50;;;5.20;99.90;;;;;;4415605;32;20073;-77
2021/04/05 01:06:36;;;;;;;1.08;0.73;;;5.30;99.90;;;;;;4414931;32;20078;-76
2021/04/05 01:09:05;;;;;;;0.30;0.30;;;5.10;99.90;;;;;;4414760;32;20129;-77
2021/04/05 01:11:31;;;;;;;0.57;0.57;;;5.00;99.90;;;;;;4414813;32;20057;-76
2021/04/05 01:13:57;;;;;;;0.50;0.50;;;5.00;99.90;;;;;;4415112;32;20079;-76
2021/04/05 01:16:27;;;;;;;0.37;0.37;;;5.00;99.90;;;;;;4415732;32;20071;-76
2021/04/05 01:18:55;;;;;;;0.88;0.82;;;5.00;99.90;;;;;;4414769;32;20121;-77
2021/04/05 01:21:21;;;;;;;0.30;0.30;;;5.00;99.90;;;;;;4414930;32;20065;-77
2021/04/05 01:23:47;;;;;;;0.60;0.60;;;5.10;99.90;;;;;;4415456;32;20078;-76
2021/04/05 01:26:13;;;;;;;0.50;0.50;;;5.10;99.90;;;;;;4415011;32;20503;-75
2021/04/05 01:28:39;;;;;;;0.95;0.75;;;5.10;99.90;;;;;;4414394;32;20089;-77
2021/04/05 01:31:04;;;;;;;0.40;0.40;;;4.80;99.90;;;;;;4414846;32;20058;-76
2021/04/05 01:33:32;;;;;;;0.35;0.35;;;4.90;99.90;;;;;;4414262;32;20070;-77
2021/04/05 01:36:02;;;;;;;0.70;0.70;;;4.90;99.90;;;;;;4413773;32;20066;-76
2021/04/05 01:38:31;;;;;;;0.40;0.40;;;5.00;99.90;;;;;;4414866;32;20085;-77
2021/04/05 01:41:00;;;;;;;1.00;0.90;;;5.00;99.90;;;;;;4416447;32;20069;-76
2021/04/05 01:43:25;;;;;;;0.52;0.52;;;4.90;99.90;;;;;;4415214;32;20086;-76
2021/04/05 01:45:54;;;;;;;0.70;0.70;;;4.80;99.90;;;;;;4415144;32;20462;-76
2021/04/05 01:48:22;;;;;;;0.40;0.40;;;4.90;99.90;;;;;;4414641;32;20438;-77
2021/04/05 01:50:48;;;;;;;0.57;0.57;;;5.00;99.90;;;;;;4414136;32;20069;-76
2021/04/05 01:53:19;;;;;;;0.40;0.40;;;5.00;99.90;;;;;;4414299;32;20085;-77
2021/04/05 01:55:46;;;;;;;0.75;0.75;;;5.00;99.90;;;;;;4413493;32;20129;-76
2021/04/05 01:58:11;;;;;;;6.32;0.80;;;4.90;99.90;;;;;;4414075;32;20078;-76
2021/04/05 02:00:39;;;;;;;0.40;0.40;;;4.90;99.90;;;;;;4414330;32;20070;-76
2021/04/05 02:03:06;;;;;;;0.40;0.40;;;5.00;99.90;;;;;;4414163;32;20073;-76
2021/04/05 02:05:35;;;;;;;0.88;0.73;;;5.00;99.90;;;;;;4413564;32;20074;-76
2021/04/05 02:08:00;;;;;;;0.73;0.73;;;4.90;99.90;;;;;;4414024;32;20081;-76
2021/04/05 02:10:26;;;;;;;1.75;1.05;;;4.90;99.90;;;;;;4413814;32;20112;-76
2021/04/05 02:12:53;;;;;;;4.37;1.12;;;4.90;99.90;;;;;;4413993;32;20086;-76
2021/04/05 02:15:21;;;;;;;0.45;0.45;;;4.70;99.90;;;;;;4414308;32;20094;-76
2021/04/05 02:17:46;;;;;;;0.50;0.50;;;4.80;99.90;;;;;;4413959;32;20429;-76
2021/04/05 02:20:14;;;;;;;0.50;0.50;;;4.70;99.90;;;;;;4415094;32;20065;-76
2021/04/05 02:22:46;;;;;;;0.30;0.30;;;4.70;99.90;;;;;;4415177;32;20117;-76
2021/04/05 02:25:14;;;;;;;1.85;1.02;;;4.70;99.90;;;;;;4413196;32;20099;-76
2021/04/05 02:27:42;;;;;;;0.43;0.43;;;4.80;99.90;;;;;;4414962;32;20058;-76
2021/04/05 02:30:08;;;;;;;3.65;1.33;;;4.70;99.90;;;;;;4413544;32;20066;-76
2021/04/05 02:32:34;;;;;;;3.30;0.60;;;4.70;99.90;;;;;;4414103;32;20490;-76
2021/04/05 02:35:00;;;;;;;0.70;0.70;;;4.80;99.90;;;;;;4414258;32;20120;-75
2021/04/05 02:37:25;;;;;;;0.40;0.40;;;4.80;99.90;;;;;;4414132;32;20117;-75
2021/04/05 02:39:51;;;;;;;0.30;0.30;;;4.80;99.90;;;;;;4414038;32;20065;-75
2021/04/05 02:42:19;;;;;;;2.10;1.37;;;4.80;99.90;;;;;;4414898;32;20065;-75
2021/04/05 02:44:45;;;;;;;1.12;0.93;;;4.70;99.90;;;;;;4414077;32;20117;-75
2021/04/05 02:47:11;;;;;;;0.43;0.43;;;4.70;99.90;;;;;;4413578;32;20124;-75
2021/04/05 02:49:40;;;;;;;0.55;0.55;;;4.70;99.90;;;;;;4414774;32;20120;-75
2021/04/05 02:52:06;;;;;;;2.72;0.88;;;4.70;99.90;;;;;;4413497;32;20479;-76
2021/04/05 02:54:32;;;;;;;0.60;0.60;;;4.70;99.90;;;;;;4412675;32;20082;-75
2021/04/05 02:56:58;;;;;;;0.40;0.40;;;4.50;99.90;;;;;;4414183;32;20065;-75
2021/04/05 02:59:24;;;;;;;0.75;0.73;;;4.50;99.90;;;;;;4414177;32;20545;-75
2021/04/05 03:01:51;;;;;;;0.80;0.77;;;4.50;99.90;;;;;;4413363;32;20506;-76
2021/04/05 03:04:17;;;;;;;0.93;0.65;;;4.50;99.90;;;;;;4413200;32;20066;-75
2021/04/05 03:06:43;;;;;;;0.37;0.37;;;4.60;99.90;;;;;;4413299;32;20079;-75
2021/04/05 03:09:09;;;;;;;0.32;0.32;;;4.50;99.90;;;;;;4413145;32;20456;-75
2021/04/05 03:11:36;;;;;;;0.43;0.43;;;4.40;99.90;;;;;;4413228;32;20124;-75
2021/04/05 03:14:04;;;;;;;0.40;0.40;;;4.40;99.90;;;;;;4415260;32;20082;-75
2021/04/05 03:16:31;;;;;;;0.80;0.80;;;4.40;99.90;;;;;;4413475;32;20090;-75
2021/04/05 03:19:00;;;;;;;1.35;0.82;;;4.50;99.90;;;;;;4414215;32;20092;-75
2021/04/05 03:21:26;;;;;;;1.02;0.95;;;4.60;99.90;;;;;;4414595;32;20073;-75
2021/04/05 03:23:52;;;;;;;2.35;1.05;;;4.70;99.90;;;;;;4412141;32;20066;-75
2021/04/05 03:26:18;;;;;;;2.28;1.70;;;4.70;99.90;;;;;;4412987;32;20074;-75
2021/04/05 03:28:44;;;;;;;0.60;0.60;;;4.60;99.90;;;;;;4413749;32;20053;-75
2021/04/05 03:31:15;;;;;;;39.35;5.32;;;4.60;99.90;;;;;;4413340;32;20085;-75
2021/04/05 03:33:48;;;;;;;0.37;0.37;;;4.60;99.90;;;;;;4413136;32;20432;-75
2021/04/05 03:36:26;;;;;;;4.12;1.00;;;4.60;99.90;;;;;;4413796;32;20062;-75
2021/04/05 03:38:52;;;;;;;0.65;0.65;;;4.60;99.90;;;;;;4414197;32;20375;-75
2021/04/05 03:41:31;;;;;;;0.60;0.60;;;4.60;99.90;;;;;;4415426;32;20490;-75
2021/04/05 03:44:19;;;;;;;5.57;1.95;;;4.70;99.90;;;;;;4414293;32;20122;-75
2021/04/05 03:46:47;;;;;;;0.40;0.40;;;4.70;99.90;;;;;;4402969;32;20086;-75
2021/04/05 03:49:26;;;;;;;0.50;0.50;;;4.70;99.90;;;;;;4413503;32;20070;-75
2021/04/05 03:52:01;;;;;;;0.50;0.50;;;4.60;99.90;;;;;;4413679;32;20509;-75
2021/04/05 03:54:33;;;;;;;1.15;1.05;;;4.70;99.90;;;;;;4411592;32;20478;-75
2021/04/05 03:57:01;;;;;;;2.47;0.98;;;4.80;99.90;;;;;;4413470;32;20070;-75
2021/04/05 03:59:30;;;;;;;1.85;0.80;;;4.70;99.90;;;;;;4412746;32;20070;-75
2021/04/05 04:01:59;;;;;;;0.65;0.65;;;4.70;99.90;;;;;;4414176;32;20098;-75
2021/04/05 04:04:31;;;;;;;0.52;0.52;;;4.70;99.90;;;;;;4412798;32;20128;-75
2021/04/05 04:07:11;;;;;;;0.30;0.30;;;4.80;99.90;;;;;;4412361;32;20081;-75
2021/04/05 04:09:38;;;;;;;1.15;0.98;;;4.70;99.90;;;;;;4412936;32;20413;-75
2021/04/05 04:12:08;;;;;;;2.87;1.00;;;4.80;99.90;;;;;;4413596;32;20077;-75
2021/04/05 04:14:37;;;;;;;3.57;1.43;;;4.90;99.90;;;;;;4413124;32;20082;-75
2021/04/05 04:17:06;;;;;;;5.20;1.42;;;4.80;99.90;;;;;;4415485;32;20057;-75
2021/04/05 04:19:33;;;;;;;2.72;1.30;;;4.90;99.90;;;;;;4415446;32;20094;-75
2021/04/05 04:21:59;;;;;;;0.52;0.52;;;4.90;99.90;;;;;;4415450;32;20124;-75
2021/04/05 04:24:27;;;;;;;0.82;0.82;;;4.80;99.90;;;;;;4416357;32;20070;-75
2021/04/05 04:26:52;;;;;;;0.93;0.93;;;4.90;99.90;;;;;;4416245;32;20113;-75
2021/04/05 04:29:20;;;;;;;0.88;0.88;;;5.10;99.90;;;;;;4416304;32;20078;-75
2021/04/05 04:31:46;;;;;;;1.12;0.90;;;5.10;99.90;;;;;;4415362;32;20086;-76
2021/04/05 04:36:39;;;;;;;1.15;0.77;;;5.00;99.90;;;;;;4415496;32;20849;-76
2021/04/05 04:39:05;;;;;;;1.73;1.08;;;5.00;99.90;;;;;;4415947;32;20130;-76
2021/04/05 04:41:30;;;;;;;0.88;0.88;;;5.10;99.90;;;;;;4416595;32;20058;-76
2021/04/05 04:44:02;;;;;;;0.57;0.57;;;5.20;99.90;;;;;;4416414;32;20098;-75
2021/04/05 04:46:29;;;;;;;0.60;0.60;;;5.20;99.90;;;;;;4415588;32;20440;-76
2021/04/05 04:48:56;;;;;;;1.83;0.90;;;5.20;99.90;;;;;;4415440;32;20058;-76
2021/04/05 04:51:22;;;;;;;0.73;0.73;;;5.10;99.90;;;;;;4415029;32;20062;-76
2021/04/05 04:53:48;;;;;;;3.72;1.95;;;5.10;99.90;;;;;;4413920;32;20582;-75
2021/04/05 04:56:15;;;;;;;1.60;1.40;;;5.10;99.90;;;;;;4416030;32;20124;-76
2021/04/05 04:58:43;;;;;;;3.45;0.82;;;5.20;99.90;;;;;;4415059;32;20129;-76
2021/04/05 05:01:10;;;;;;;7.60;2.53;;;5.20;99.90;;;;;;4415305;32;20054;-76
2021/04/05 05:03:39;;;;;;;1.40;1.30;;;5.30;99.90;;;;;;4411356;32;20128;-76
2021/04/05 05:06:05;;;;;;;1.77;1.42;;;5.30;99.90;;;;;;4414052;32;20443;-76
2021/04/05 05:08:32;;;;;;;1.17;0.88;;;5.30;99.90;;;;;;4415964;32;20057;-76
2021/04/05 05:10:58;;;;;;;1.15;1.05;;;5.30;99.90;;;;;;4414451;32;20061;-76
2021/04/05 05:13:23;;;;;;;1.33;1.10;;;5.20;99.90;;;;;;4409352;32;20061;-76
2021/04/05 05:15:51;;;;;;;4.62;1.48;;;5.30;99.90;;;;;;4423839;32;20266;-76
2021/04/05 05:18:17;;;;;;;2.12;1.50;;;5.40;99.90;;;;;;4431345;32;20081;-76
2021/04/05 05:20:42;;;;;;;1.05;0.52;;;5.40;99.90;;;;;;4415136;32;20065;-76
2021/04/05 05:23:10;;;;;;;0.85;0.77;;;5.40;99.90;;;;;;4429957;32;20097;-76
2021/04/05 05:25:36;;;;;;;1.62;1.17;;;5.50;99.90;;;;;;4429949;32;20062;-76
2021/04/05 05:28:04;;;;;;;0.80;0.80;;;5.50;99.90;;;;;;4428814;32;20053;-76
2021/04/05 05:30:30;;;;;;;2.62;1.77;;;5.50;99.90;;;;;;4429660;32;20077;-76
2021/04/05 05:32:59;;;;;;;6.37;1.98;;;5.50;99.90;;;;;;4430791;32;20061;-76
2021/04/05 05:35:24;;;;;;;0.80;0.75;;;5.50;99.90;;;;;;4430666;32;20136;-76
2021/04/05 05:37:50;;;;;;;3.10;1.35;;;5.50;99.90;;;;;;4430856;32;20082;-75
2021/04/05 05:40:21;;;;;;;2.78;1.05;;;5.40;99.90;;;;;;4430320;32;20065;-75
2021/04/05 05:43:08;;;;;;;1.40;1.12;;;5.50;99.90;;;;;;4430564;32;20065;-77
2021/04/05 05:45:43;;;;;;;12.07;1.77;;;5.50;99.90;;;;;;4430819;32;20377;-75
2021/04/05 05:48:21;;;;;;;1.33;1.12;;;5.60;99.90;;;;;;4429840;32;20069;-75
2021/04/05 05:51:01;;;;;;;1.48;1.20;;;5.60;99.90;;;;;;4429589;32;20077;-75
2021/04/05 05:53:56;;;;;;;3.33;1.35;;;5.60;99.90;;;;;;4431065;32;20078;-76
2021/04/05 05:56:52;;;;;;;0.40;0.40;;;5.70;99.90;;;;;;4431434;32;20073;-75
2021/04/05 05:59:21;;;;;;;0.90;0.90;;;5.70;99.90;;;;;;4411730;32;20121;-76
2021/04/05 06:01:56;;;;;;;6.97;1.55;;;5.70;99.90;;;;;;4413936;32;20090;-76
2021/04/05 06:04:50;;;;;;;1.08;1.00;;;5.80;99.90;;;;;;4414206;32;20430;-76
2021/04/05 06:07:36;;;;;;;1.37;1.27;;;5.80;99.90;;;;;;4411828;32;20518;-76
2021/04/05 06:10:24;;;;;;;10.70;1.60;;;5.90;99.90;;;;;;4412655;32;20082;-76
2021/04/05 06:13:08;;;;;;;19.58;1.65;;;5.90;99.90;;;;;;4402982;32;20152;-76
2021/04/05 06:15:49;;;;;;;4.68;0.80;;;6.00;99.90;;;;;;4413825;32;20416;-76
2021/04/05 06:18:22;;;;;;;1.17;0.73;;;6.10;99.90;;;;;;4413644;32;20069;-76
2021/04/05 06:21:00;;;;;;;0.90;0.90;;;6.10;99.90;;;;;;4413834;32;20061;-76
2021/04/05 06:23:40;;;;;;;7.18;2.25;;;6.20;99.90;;;;;;4413453;32;20070;-76
2021/04/05 06:26:21;;;;;;;0.75;0.75;;;6.20;99.90;;;;;;4414009;32;20065;-76
2021/04/05 06:29:08;;;;;;;1.60;1.10;;;6.20;99.90;;;;;;4415156;32;20554;-76
2021/04/05 06:31:43;;;;;;;0.82;0.75;;;6.20;99.90;;;;;;4413439;32;20130;-76
2021/04/05 06:34:28;;;;;;;0.55;0.55;;;6.20;99.90;;;;;;4414334;32;20117;-76
2021/04/05 06:37:20;;;;;;;1.77;1.27;;;6.30;99.90;;;;;;4413694;32;20058;-76
2021/04/05 06:39:49;;;;;;;0.68;0.68;;;6.30;99.90;;;;;;4404780;32;20120;-76
2021/04/05 06:42:42;;;;;;;0.95;0.95;;;6.30;99.90;;;;;;4415372;32;20077;-76
2021/04/05 06:45:36;;;;;;;5.50;1.92;;;6.30;99.90;;;;;;4415882;32;20128;-76
2021/04/05 06:48:04;;;;;;;18.62;1.35;;;6.40;99.90;;;;;;4403453;32;20506;-77
2021/04/05 06:50:43;;;;;;;1.33;1.23;;;6.40;99.90;;;;;;4414124;32;20483;-76
2021/04/05 06:53:34;;;;;;;0.55;0.55;;;6.40;99.90;;;;;;4413413;32;20432;-76
2021/04/05 06:56:07;;;;;;;0.73;0.73;;;6.50;99.90;;;;;;4402623;32;20086;-76
2021/04/05 06:58:54;;;;;;;0.40;0.40;;;6.60;99.90;;;;;;4416454;32;20077;-76
2021/04/05 07:01:44;;;;;;;2.05;1.12;;;6.50;99.90;;;;;;4402089;32;20084;-76
2021/04/05 07:04:36;;;;;;;0.50;0.50;;;6.60;99.90;;;;;;4386541;32;20190;-76
2021/04/05 07:07:19;;;;;;;0.35;0.35;;;6.70;99.90;;;;;;4394087;32;20070;-76
2021/04/05 07:09:56;;;;;;;5.05;1.95;;;6.70;99.90;;;;;;4413658;32;20077;-76
2021/04/05 07:13:00;;;;;;;5.97;1.55;;;6.70;99.90;;;;;;4413494;32;20434;-76
2021/04/05 07:15:47;;;;;;;1.98;1.35;;;6.70;99.90;;;;;;4404502;32;20070;-76
2021/04/05 07:18:42;;;;;;;1.23;1.12;;;6.80;99.90;;;;;;4401090;32;20120;-76
2021/04/05 07:21:33;;;;;;;1.52;1.05;;;6.70;99.90;;;;;;4401982;32;20083;-76
2021/04/05 07:24:19;;;;;;;4.37;1.73;;;6.70;99.90;;;;;;4403217;32;20065;-76
2021/04/05 07:26:57;;;;;;;2.47;1.00;;;6.70;99.90;;;;;;4413063;32;20081;-76
2021/04/05 07:30:03;;;;;;;1.23;0.77;;;6.70;99.90;;;;;;4400609;32;20124;-76
2021/04/05 07:32:40;;;;;;;0.98;0.98;;;6.60;99.90;;;;;;4402274;32;20057;-76
2021/04/05 07:35:17;;;;;;;4.45;1.90;;;6.50;99.90;;;;;;4412537;32;20116;-76
2021/04/05 07:37:47;;;;;;;0.70;0.70;;;6.50;99.90;;;;;;4413786;32;20086;-75
2021/04/05 07:40:37;;;;;;;1.83;1.03;;;6.50;99.90;;;;;;4414213;32;20514;-76
2021/04/05 07:43:10;;;;;;;3.87;1.67;;;6.50;99.90;;;;;;4414013;32;20146;-77
2021/04/05 07:46:03;;;;;;;3.25;1.17;;;6.40;99.90;;;;;;4414102;32;20077;-76
2021/04/05 07:48:36;;;;;;;1.17;0.98;;;6.40;99.90;;;;;;4401825;32;20090;-77
2021/04/05 07:51:13;;;;;;;0.73;0.70;;;6.40;99.90;;;;;;4413822;32;20518;-77
2021/04/05 07:54:02;;;;;;;0.57;0.57;;;6.40;99.90;;;;;;4412360;32;20507;-77
2021/04/05 07:56:31;;;;;;;3.53;0.85;;;6.40;99.90;;;;;;4403010;32;20090;-77
2021/04/05 07:59:18;;;;;;;5.72;1.50;;;6.50;99.90;;;;;;4403882;32;20106;-77
2021/04/05 08:01:57;;;;;;;0.50;0.50;;;6.40;99.90;;;;;;4396251;32;20384;-77
2021/04/05 08:04:48;;;;;;;2.78;1.35;;;6.40;99.90;;;;;;4397494;32;20082;-77
2021/04/05 08:07:25;;;;;;;0.93;0.88;;;6.40;99.90;;;;;;4404732;32;20081;-76
2021/04/05 08:10:09;;;;;;;5.12;1.10;;;6.30;99.90;;;;;;4423562;32;20124;-77
2021/04/05 08:13:06;;;;;;;3.12;1.95;;;6.30;99.90;;;;;;4413060;32;20073;-77
2021/04/05 08:15:37;;;;;;;4.47;1.02;;;6.30;99.90;;;;;;4389353;32;20483;-77
2021/04/05 08:18:11;;;;;;;;;;;6.20;99.90;;;;;;4399922;32;20514;-78
2021/04/05 08:20:44;;;;;;;0.85;0.82;;;6.10;99.90;;;;;;4413727;32;19971;-77
2021/04/05 08:23:33;;;;;;;1.65;1.20;;;6.10;99.90;;;;;;4413132;32;20070;-77
2021/04/05 08:26:21;;;;;;;1.48;1.33;;;6.00;99.90;;;;;;4403057;32;20086;-77
2021/04/05 08:29:34;;;;;;;1.33;0.82;;;6.00;99.90;;;;;;4413920;32;20090;-77
2021/04/05 08:32:20;;;;;;;2.28;1.55;;;6.00;99.90;;;;;;4399897;32;20066;-77
2021/04/05 08:35:05;;;;;;;10.98;1.60;;;5.90;99.90;;;;;;4412657;32;20074;-77
2021/04/05 08:37:57;;;;;;;1.20;1.10;;;6.00;99.90;;;;;;4413465;32;20083;-77
2021/04/05 08:40:31;;;;;;;2.03;1.05;;;5.90;99.90;;;;;;4402110;32;20537;-77
2021/04/05 08:43:24;;;;;;;0.90;0.90;;;5.80;99.90;;;;;;4413507;32;20125;-77
2021/04/05 08:45:56;;;;;;;0.70;0.70;;;5.80;99.90;;;;;;4403455;32;20078;-77
2021/04/05 08:48:25;;;;;;;5.15;1.85;;;5.80;99.90;;;;;;4412584;32;20456;-77
2021/04/05 08:50:58;;;;;;;0.93;0.80;;;5.90;99.90;;;;;;4412923;32;20073;-76
2021/04/05 08:53:24;;;;;;;1.33;0.88;;;5.90;99.90;;;;;;4413411;32;20069;-76
2021/04/05 08:55:51;;;;;;;3.28;2.33;;;5.90;99.90;;;;;;4411883;32;20078;-77
2021/04/05 08:58:44;;;;;;;3.03;1.02;;;5.90;99.90;;;;;;4406001;32;20079;-76
2021/04/05 09:01:15;;;;;;;1.05;0.95;;;5.90;99.90;;;;;;4398663;32;20078;-76
2021/04/05 09:03:45;;;;;;;1.08;0.98;;;5.90;99.90;;;;;;4399071;32;20066;-76
2021/04/05 09:06:15;;;;;;;0.57;0.57;;;5.90;99.90;;;;;;4405084;32;20078;-76
2021/04/05 09:08:44;;;;;;;2.92;1.50;;;5.90;99.90;;;;;;4431209;32;20138;-76
2021/04/05 09:11:12;;;;;;;1.05;0.95;;;6.00;99.90;;;;;;4416946;32;20136;-76
2021/04/05 09:13:50;;;;;;;2.65;1.50;;;5.90;99.90;;;;;;4414992;32;20090;-76
2021/04/05 09:16:37;;;;;;;1.15;1.12;;;5.90;99.90;;;;;;4414767;32;20070;-76
2021/04/05 09:19:39;;;;;;;4.87;1.25;;;5.80;99.90;;;;;;4403145;32;20328;-76
2021/04/05 09:22:35;;;;;;;1.30;1.20;;;5.80;99.90;;;;;;4403333;32;20058;-77
2021/04/05 09:25:21;;;;;;;0.80;0.80;;;5.80;99.90;;;;;;4403983;32;20128;-76
2021/04/05 09:27:58;;;;;;;10.70;1.73;;;5.80;99.90;;;;;;4402537;32;20078;-76
2021/04/05 09:30:52;;;;;;;5.18;1.50;;;5.80;99.90;;;;;;4415050;32;20058;-77
2021/04/05 09:33:38;;;;;;;7.95;1.62;;;5.60;99.90;;;;;;4403003;32;20058;-76
2021/04/05 09:36:10;;;;;;;0.40;0.40;;;5.60;99.90;;;;;;4404933;32;20094;-76
2021/04/05 09:38:59;;;;;;;0.70;0.55;;;5.40;99.90;;;;;;4411818;32;94511;-78
2021/04/05 09:41:46;;;;;;;0.50;0.50;;;5.30;99.90;;;;;;4405240;32;20119;-76
2021/04/05 09:44:44;;;;;;;0.40;0.40;;;5.20;99.90;;;;;;4404719;32;20057;-75
2021/04/05 09:47:36;;;;;;;0.35;0.35;;;5.10;99.90;;;;;;4415787;32;20077;-76
2021/04/05 09:50:26;;;;;;;0.32;0.32;;;5.10;99.90;;;;;;4430074;32;20431;-76
2021/04/05 09:53:18;;;;;;;0.55;0.50;;;5.00;99.90;;;;;;4417977;32;20069;-76
2021/04/05 09:55:48;;;;;;;0.35;0.35;;;5.00;99.90;;;;;;4429982;32;20077;-76
2021/04/05 09:58:20;;;;;;;0.30;0.30;;;5.10;99.90;;;;;;4423453;32;20069;-76
2021/04/05 10:00:51;;;;;;;0.40;0.40;;;5.10;99.90;;;;;;4413623;32;20077;-76
2021/04/05 10:03:17;;;;;;;0.40;0.40;;;5.20;99.90;;;;;;4414262;32;20127;-76
2021/04/05 10:05:45;;;;;;;0.40;0.40;;;5.10;99.90;;;;;;4414647;32;20497;-76
2021/04/05 10:08:27;;;;;;;0.30;0.30;;;5.10;99.90;;;;;;4414076;32;20409;-76
2021/04/05 10:10:54;;;;;;;0.40;0.40;;;5.10;99.90;;;;;;4413842;32;20117;-76
2021/04/05 10:13:24;;;;;;;0.35;0.35;;;5.10;99.90;;;;;;4413552;32;20066;-76
2021/04/05 10:15:51;;;;;;;0.30;0.30;;;5.00;99.90;;;;;;4414297;32;20124;-76
2021/04/05 10:18:17;;;;;;;0.40;0.40;;;5.10;99.90;;;;;;4414455;32;20082;-76
2021/04/05 10:20:48;;;;;;;0.30;0.30;;;5.00;99.90;;;;;;4413407;32;20057;-76
2021/04/05 10:23:19;;;;;;;0.40;0.40;;;5.00;99.90;;;;;;4415089;32;20069;-77
2021/04/05 10:25:50;;;;;;;2.70;0.47;;;5.00;99.90;;;;;;4413591;32;20074;-76
2021/04/05 10:28:17;;;;;;;0.45;0.45;;;5.00;99.90;;;;;;4414152;32;20073;-76
2021/04/05 10:30:43;;;;;;;4.07;0.70;;;5.00;99.90;;;;;;4413548;32;20133;-77
2021/04/05 10:33:15;;;;;;;0.40;0.40;;;5.10;99.90;;;;;;4413537;32;20475;-76
2021/04/05 10:35:47;;;;;;;0.40;0.40;;;5.20;99.90;;;;;;4412918;32;20086;-76
2021/04/05 10:38:16;;;;;;;0.30;0.30;;;5.30;99.90;;;;;;4414208;32;20089;-76
2021/04/05 10:40:42;;;;;;;0.30;0.30;;;5.30;99.90;;;;;;4414949;32;20078;-76
2021/04/05 10:43:18;;;;;;;0.30;0.30;;;5.50;99.90;;;;;;4414894;32;20397;-76
2021/04/05 10:45:50;;;;;;;0.40;0.40;;;5.60;99.90;;;;;;4415786;32;20066;-76
2021/04/05 10:48:25;;;;;;;0.40;0.40;;;5.80;99.90;;;;;;4429234;32;20077;-76
2021/04/05 10:50:58;;;;;;;0.37;0.37;;;5.80;99.90;;;;;;4429126;32;20062;-76
2021/04/05 10:53:27;;;;;;;0.40;0.40;;;5.80;99.90;;;;;;4429069;32;20538;-76
2021/04/05 10:55:57;;;;;;;0.40;0.40;;;5.80;99.90;;;;;;4428493;32;20518;-76
2021/04/05 10:58:26;;;;;;;;;;;5.90;99.90;;;;;;4422767;32;20085;-76
2021/04/05 11:00:57;;;;;;;0.32;0.32;;;5.90;99.90;;;;;;4413523;32;19959;-76
2021/04/05 11:03:26;;;;;;;0.30;0.30;;;5.80;99.90;;;;;;4414479;32;20093;-76
2021/04/05 11:05:57;;;;;;;0.30;0.30;;;5.80;99.90;;;;;;4412964;32;20055;-76
2021/04/05 11:08:28;;;;;;;1.75;0.70;;;5.80;99.90;;;;;;4414248;32;20498;-76
2021/04/05 11:11:05;;;;;;;0.25;0.25;;;5.80;99.90;;;;;;4413405;32;20515;-76
2021/04/05 11:13:36;;;;;;;0.40;0.40;;;5.80;99.90;;;;;;4413177;32;20483;-76
2021/04/05 11:16:08;;;;;;;0.30;0.30;;;5.60;99.90;;;;;;4414209;32;20140;-76
2021/04/05 11:18:34;;;;;;;0.30;0.30;;;5.50;99.90;;;;;;4413987;32;20061;-77
2021/04/05 11:21:01;;;;;;;0.30;0.30;;;5.50;99.90;;;;;;4412695;32;20058;-76
2021/04/05 11:23:33;;;;;;;0.40;0.40;;;5.50;99.90;;;;;;4412931;32;20089;-76
2021/04/05 11:26:02;;;;;;;0.30;0.30;;;5.60;99.90;;;;;;4412527;32;20078;-76
2021/04/05 11:28:31;;;;;;;0.50;0.50;;;5.60;99.90;;;;;;4412193;32;20154;-76
2021/04/05 11:31:01;;;;;;;0.35;0.35;;;5.50;99.90;;;;;;4413013;32;20099;-76
2021/04/05 11:33:31;;;;;;;0.30;0.30;;;5.60;99.90;;;;;;4413408;32;20424;-76
2021/04/05 11:35:58;;;;;;;0.40;0.40;;;5.40;99.90;;;;;;4412149;32;20116;-76
2021/04/05 11:38:24;;;;;;;0.30;0.30;;;5.50;99.90;;;;;;4412369;32;20090;-76
2021/04/05 11:41:02;;;;;;;0.30;0.30;;;5.70;99.90;;;;;;4412355;32;20069;-76
2021/04/05 11:43:31;;;;;;;0.30;0.30;;;5.70;99.90;;;;;;4414604;32;20140;-76
2021/04/05 11:46:04;;;;;;;0.30;0.30;;;6.00;99.90;;;;;;4415866;32;20065;-76
2021/04/05 11:48:32;;;;;;;1.12;0.95;;;6.00;99.90;;;;;;4427816;32;20069;-76
2021/04/05 11:50:58;;;;;;;0.37;0.37;;;6.00;99.90;;;;;;4428400;32;20605;-76
2021/04/05 11:53:48;;;;;;;0.32;0.32;;;6.10;99.90;;;;;;4428708;32;20062;-76
2021/04/05 11:56:16;;;;;;;0.30;0.30;;;6.00;99.90;;;;;;4416296;32;20502;-76
2021/04/05 11:58:46;;;;;;;0.30;0.30;;;6.00;99.90;;;;;;4419831;32;20534;-77
2021/04/05 12:01:16;;;;;;;1.33;0.70;;;6.20;99.90;;;;;;4414124;32;20057;-76
2021/04/05 12:03:51;;;;;;;0.22;0.22;;;6.30;99.90;;;;;;4412831;32;20066;-76
2021/04/05 12:06:22;;;;;;;0.37;0.37;;;6.20;99.90;;;;;;4411809;32;20073;-76
2021/04/05 12:08:52;;;;;;;0.30;0.30;;;5.70;99.90;;;;;;4412918;32;20074;-76
2021/04/05 12:11:20;;;;;;;0.30;0.30;;;5.20;99.90;;;;;;4413056;32;20058;-76
2021/04/05 12:14:07;;;;;;;0.40;0.40;;;5.10;99.90;;;;;;4412813;32;20078;-76
2021/04/05 12:16:34;;;;;;;0.30;0.30;;;4.90;99.90;;;;;;4401137;32;20066;-76
2021/04/05 12:19:01;;;;;;;0.50;0.50;;;5.00;99.90;;;;;;4412645;32;20070;-76
2021/04/05 12:21:29;;;;;;;0.40;0.40;;;4.90;99.90;;;;;;4413507;32;20409;-76
2021/04/05 12:23:57;;;;;;;0.30;0.30;;;4.90;99.90;;;;;;4412620;32;20114;-76
2021/04/05 12:26:26;;;;;;;0.30;0.30;;;5.00;99.90;;;;;;4412420;32;20128;-76
2021/04/05 12:28:55;;;;;;;0.30;0.30;;;5.10;99.90;;;;;;4412937;32;20066;-76
2021/04/05 12:31:25;;;;;;;0.40;0.40;;;5.20;99.90;;;;;;4413586;32;20131;-76
2021/04/05 12:33:53;;;;;;;0.70;0.70;;;5.30;99.90;;;;;;4412663;32;20086;-76
2021/04/05 12:36:19;;;;;;;0.32;0.32;;;5.30;99.90;;;;;;4413217;32;20127;-76
2021/04/05 12:38:51;;;;;;;0.30;0.30;;;5.30;99.90;;;;;;4415919;32;20478;-76
2021/04/05 12:41:17;;;;;;;0.30;0.30;;;5.40;99.90;;;;;;4415183;32;20121;-76
2021/04/05 12:43:44;;;;;;;0.30;0.30;;;5.50;99.90;;;;;;4416195;32;20082;-76
2021/04/05 12:46:16;;;;;;;0.80;0.77;;;5.60;99.90;;;;;;4420357;32;20172;-76
2021/04/05 12:48:43;;;;;;;0.30;0.30;;;5.70;99.90;;;;;;4430495;32;20069;-76
2021/04/05 12:51:10;;;;;;;0.30;0.30;;;5.90;99.90;;;;;;4431231;32;20116;-76
2021/04/05 12:53:38;;;;;;;0.30;0.30;;;6.00;99.90;;;;;;4429495;32;20186;-76
2021/04/05 12:56:04;;;;;;;0.30;0.30;;;6.50;99.90;;;;;;4432441;32;20062;-76
2021/04/05 12:58:34;;;;;;;0.25;0.25;;;6.80;99.90;;;;;;4423077;32;20069;-76
2021/04/05 13:01:02;;;;;;;0.30;0.30;;;6.90;99.90;;;;;;4415887;32;20506;-76
2021/04/05 13:03:34;;;;;;;0.30;0.30;;;7.00;99.90;;;;;;4417118;32;20255;-76
2021/04/05 13:06:04;;;;;;;0.40;0.40;;;7.20;99.90;;;;;;4416285;32;20182;-76
2021/04/05 13:08:47;;;;;;;0.30;0.30;;;6.90;99.90;;;;;;4415725;32;20169;-76
2021/04/05 13:11:17;;;;;;;0.25;0.25;;;6.80;99.90;;;;;;4416781;32;20098;-76
2021/04/05 13:13:48;;;;;;;0.30;0.30;;;6.80;99.90;;;;;;4415491;32;20510;-76
2021/04/05 13:16:27;;;;;;;0.30;0.30;;;7.10;99.90;;;;;;4414753;32;20424;-77
2021/04/05 13:18:56;;;;;;;0.30;0.30;;;7.40;99.90;;;;;;4401847;32;20580;-77
2021/04/05 13:21:23;;;;;;;0.50;0.50;;;7.60;99.90;;;;;;4415740;32;20133;-77
2021/04/05 13:23:53;;;;;;;0.30;0.30;;;7.70;99.90;;;;;;4413838;32;20058;-76
2021/04/05 13:26:32;;;;;;;0.30;0.30;;;7.60;99.90;;;;;;4414770;32;20125;-76
2021/04/05 13:28:58;;;;;;;0.30;0.30;;;7.60;99.90;;;;;;4414556;32;20136;-76